Time;durP1;ratioP1;P1;durP2;ratioP2;P2;SDS_P1;SDS_P2;PMS_P1;PMS_P2;Temp;Humidity;BMP_temperature;BMP_pressure;BME280_temperature;BME280_humidity;BME280_pressure;Samples;Min_cycle;Max_cycle;Signal;HPM_P1;HPM_P2
2022/03/11 00:02:20;;;;;;;17.70;7.40;;;;;;;-4.66;58.07;100391.98;218251;1276;22679;-70
2022/03/11 00:07:24;;;;;;;16.60;8.20;;;;;;;-4.73;58.17;100392.89;220150;1276;22869;-70
2022/03/11 00:12:28;;;;;;;18.50;8.00;;;;;;;-4.69;58.65;100391.77;218257;1276;23179;-69
2022/03/11 00:17:43;;;;;;;17.60;7.70;;;;;;;-4.57;58.59;100389.23;218101;1276;22935;-69
2022/03/11 00:22:51;;;;;;;18.30;8.20;;;;;;;-4.53;58.47;100381.54;218415;1276;24117;-69
2022/03/11 00:28:07;;;;;;;18.80;8.50;;;;;;;-4.52;58.51;100375.67;218083;1276;22751;-69
2022/03/11 00:33:12;;;;;;;21.20;9.00;;;;;;;-4.58;58.55;100375.77;218450;1276;22679;-70
2022/03/11 00:38:15;;;;;;;19.50;8.20;;;;;;;-4.61;58.49;100367.67;218338;1276;22665;-69
2022/03/11 00:43:18;;;;;;;16.80;7.80;;;;;;;-4.66;58.42;100357.66;218170;1276;25668;-70
2022/03/11 00:48:21;;;;;;;15.80;8.10;;;;;;;-4.68;58.50;100355.78;218224;1276;23016;-70
2022/03/11 00:53:24;;;;;;;16.60;7.90;;;;;;;-4.73;58.37;100353.26;218249;1276;22865;-70
2022/03/11 00:58:27;;;;;;;19.10;8.00;;;;;;;-4.83;58.34;100355.28;218273;1277;24585;-69
2022/03/11 01:03:30;;;;;;;26.10;11.50;;;;;;;-4.93;58.47;100354.08;218274;1276;25778;-69
2022/03/11 01:08:32;;;;;;;22.00;10.10;;;;;;;-5.05;58.66;100352.66;218477;1276;22660;-70
2022/03/11 01:13:35;;;;;;;25.00;11.60;;;;;;;-5.13;59.20;100357.28;218267;1276;25640;-69
2022/03/11 01:18:37;;;;;;;23.70;11.40;;;;;;;-5.20;59.29;100356.02;218420;1276;24383;-69
2022/03/11 01:23:39;;;;;;;18.80;9.80;;;;;;;-5.26;59.48;100350.15;218212;1277;25580;-69
2022/03/11 01:28:43;;;;;;;20.90;10.00;;;;;;;-5.33;59.77;100346.83;218375;1276;25396;-69
2022/03/11 01:33:49;;;;;;;20.00;10.00;;;;;;;-5.36;60.07;100340.53;218561;1276;26684;-69
2022/03/11 01:38:52;;;;;;;21.10;9.90;;;;;;;-5.31;60.21;100339.37;218400;1276;22607;-70
2022/03/11 01:44:04;;;;;;;19.30;9.40;;;;;;;-5.31;59.99;100335.71;218400;1277;22792;-69
2022/03/11 01:49:09;;;;;;;21.60;9.90;;;;;;;-5.37;60.14;100338.44;218415;1276;22697;-69
2022/03/11 01:54:13;;;;;;;18.90;9.80;;;;;;;-5.31;60.41;100335.33;218457;1277;25567;-70
2022/03/11 01:59:15;;;;;;;18.00;8.90;;;;;;;-5.32;60.53;100333.50;218196;1277;25667;-69
2022/03/11 02:04:18;;;;;;;18.40;9.30;;;;;;;-5.41;60.11;100329.17;218332;1277;26608;-70
2022/03/11 02:09:24;;;;;;;19.60;10.40;;;;;;;-5.50;60.17;100331.03;218462;1276;26705;-70
2022/03/11 02:14:35;;;;;;;18.60;8.50;;;;;;;-5.57;60.27;100330.96;218366;1277;22822;-69
2022/03/11 02:19:54;;;;;;;18.40;8.70;;;;;;;-5.55;60.34;100326.63;218107;1281;25595;-69
2022/03/11 02:24:58;;;;;;;19.80;8.40;;;;;;;-5.57;60.08;100326.86;217817;1281;26789;-70
2022/03/11 02:30:02;;;;;;;19.00;8.70;;;;;;;-5.63;60.17;100324.05;218228;1277;25971;-68
2022/03/11 02:35:07;;;;;;;20.50;9.00;;;;;;;-5.64;59.90;100319.11;218558;1276;22626;-69
2022/03/11 02:40:10;;;;;;;18.60;8.30;;;;;;;-5.67;59.96;100317.42;218685;1277;25971;-69
2022/03/11 02:45:12;;;;;;;20.00;8.50;;;;;;;-5.73;59.94;100316.63;218524;1277;25507;-69
2022/03/11 02:50:15;;;;;;;20.30;9.30;;;;;;;-5.79;60.01;100313.94;218235;1277;23017;-71
2022/03/11 02:55:18;;;;;;;23.20;9.20;;;;;;;-5.84;60.16;100316.44;218638;1277;22852;-70
2022/03/11 03:00:20;;;;;;;17.70;8.20;;;;;;;-5.88;60.32;100322.52;218261;1277;24251;-70
2022/03/11 03:05:26;;;;;;;19.90;9.00;;;;;;;-5.92;60.40;100323.98;218186;1278;22720;-69
2022/03/11 03:10:29;;;;;;;17.20;8.50;;;;;;;-5.93;60.34;100321.98;218088;1276;24362;-70
2022/03/11 03:15:45;;;;;;;22.50;9.40;;;;;;;-5.92;60.32;100323.98;218935;1277;22678;-69
2022/03/11 03:20:53;;;;;;;17.90;7.50;;;;;;;-5.92;60.33;100320.00;218385;1277;24440;-70
2022/03/11 03:25:55;;;;;;;16.30;8.10;;;;;;;-5.99;60.33;100313.85;218420;1277;24320;-70
2022/03/11 03:30:58;;;;;;;16.10;7.20;;;;;;;-6.04;60.41;100312.59;218200;1277;22772;-69
2022/03/11 03:36:03;;;;;;;15.40;8.10;;;;;;;-6.04;60.42;100312.44;218271;1277;24812;-69
2022/03/11 03:41:23;;;;;;;16.80;7.80;;;;;;;-6.07;60.42;100310.58;218341;1276;22686;-69
2022/03/11 03:46:46;;;;;;;17.90;7.50;;;;;;;-6.08;60.50;100311.77;217991;1277;25593;-70
2022/03/11 03:51:49;;;;;;;16.30;8.30;;;;;;;-6.10;60.44;100310.53;218360;1277;24451;-70
2022/03/11 03:56:51;;;;;;;22.10;9.20;;;;;;;-6.10;60.49;100311.94;218429;1279;25419;-70
2022/03/11 04:01:56;;;;;;;17.70;8.20;;;;;;;-6.13;60.40;100318.27;218309;1276;22814;-70
2022/03/11 04:06:59;;;;;;;17.60;9.20;;;;;;;-6.23;60.34;100328.60;218522;1277;24317;-69
2022/03/11 04:12:11;;;;;;;18.50;8.80;;;;;;;-6.28;60.59;100325.63;218688;1277;22640;-69
2022/03/11 04:17:16;;;;;;;15.90;7.30;;;;;;;-6.32;60.58;100322.27;218497;1277;22725;-70
2022/03/11 04:22:19;;;;;;;18.10;8.10;;;;;;;-6.40;60.59;100321.45;218310;1277;22931;-69
2022/03/11 04:27:30;;;;;;;13.70;7.10;;;;;;;-6.43;60.63;100322.71;218461;1277;22764;-69
2022/03/11 04:32:53;;;;;;;15.60;7.30;;;;;;;-6.46;60.66;100322.27;218431;1277;23589;-69
2022/03/11 04:37:58;;;;;;;20.50;8.10;;;;;;;-6.52;60.74;100326.06;218429;1276;25658;-69
2022/03/11 04:43:01;;;;;;;15.50;7.10;;;;;;;-6.49;61.30;100327.64;218865;1276;22887;-69
2022/03/11 04:48:17;;;;;;;17.00;8.20;;;;;;;-6.52;61.09;100327.06;218237;1277;22660;-68
2022/03/11 04:53:33;;;;;;;19.50;8.60;;;;;;;-6.52;61.55;100331.73;218180;1277;24648;-69
2022/03/11 04:58:35;;;;;;;20.10;8.30;;;;;;;-6.55;61.38;100330.09;218205;1277;25486;-68
2022/03/11 05:03:37;;;;;;;25.50;9.80;;;;;;;-6.61;61.41;100332.70;218300;1276;22874;-69
2022/03/11 05:08:44;;;;;;;17.50;7.20;;;;;;;-6.63;61.49;100336.27;218206;1276;22768;-70
2022/03/11 05:13:46;;;;;;;15.10;7.60;;;;;;;-6.64;61.66;100340.34;218403;1276;22684;-68
2022/03/11 05:19:02;;;;;;;16.50;7.80;;;;;;;-6.62;61.66;100342.61;218418;1277;22750;-69
2022/03/11 05:24:06;;;;;;;19.50;8.50;;;;;;;-6.61;61.90;100339.67;218175;1276;22745;-69
2022/03/11 05:29:08;;;;;;;21.20;9.40;;;;;;;-6.52;62.02;100340.79;219211;1276;25515;-69
2022/03/11 05:34:10;;;;;;;16.70;8.50;;;;;;;-6.43;62.08;100341.85;218347;1276;22614;-69
2022/03/11 05:39:16;;;;;;;20.10;9.10;;;;;;;-6.30;62.00;100341.45;218187;1276;22607;-69
2022/03/11 05:44:22;;;;;;;18.50;8.00;;;;;;;-6.24;61.63;100334.95;218019;1279;22798;-69
2022/03/11 05:49:26;;;;;;;18.10;8.70;;;;;;;-6.18;61.75;100340.63;218358;1277;22709;-69
2022/03/11 05:54:28;;;;;;;19.90;8.80;;;;;;;-6.10;61.42;100346.90;218043;1276;22652;-69
2022/03/11 05:59:38;;;;;;;18.80;8.50;;;;;;;-5.97;61.47;100350.58;218450;1277;22556;-70
2022/03/11 06:04:41;;;;;;;18.10;9.10;;;;;;;-5.85;61.21;100352.54;218442;1277;22595;-68
2022/03/11 06:09:47;;;;;;;22.20;10.70;;;;;;;-5.72;61.10;100359.90;218527;1277;24808;-69
2022/03/11 06:15:11;;;;;;;17.50;9.10;;;;;;;-5.56;60.78;100363.94;218267;1277;25688;-69
2022/03/11 06:20:13;;;;;;;23.90;9.80;;;;;;;-5.44;60.49;100371.58;218596;1276;23788;-69
2022/03/11 06:25:17;;;;;;;21.20;9.70;;;;;;;-5.36;60.53;100374.98;218409;1276;22685;-70
2022/03/11 06:30:22;;;;;;;22.50;10.00;;;;;;;-5.23;60.23;100374.44;218100;1277;25148;-69
2022/03/11 06:35:24;;;;;;;17.00;8.80;;;;;;;-5.12;60.21;100374.78;218256;1277;22796;-70
2022/03/11 06:40:27;;;;;;;19.40;9.10;;;;;;;-4.94;60.00;100377.66;217920;1277;24447;-69
2022/03/11 06:45:29;;;;;;;19.00;10.20;;;;;;;-4.78;59.72;100374.85;218026;1276;24738;-67
2022/03/11 06:50:33;;;;;;;20.00;10.30;;;;;;;-4.63;59.40;100374.14;218690;1276;22683;-68
2022/03/11 06:55:47;;;;;;;21.30;9.90;;;;;;;-4.42;59.16;100373.66;217798;1275;22825;-69
2022/03/11 07:00:50;;;;;;;19.20;9.60;;;;;;;-4.19;58.74;100368.95;217989;1277;22845;-69
2022/03/11 07:05:52;;;;;;;18.70;8.90;;;;;;;-3.93;58.17;100373.85;218368;1276;22656;-67
2022/03/11 07:10:54;;;;;;;17.10;8.50;;;;;;;-3.73;57.24;100382.47;217998;1276;22889;-68
2022/03/11 07:15:57;;;;;;;17.50;8.40;;;;;;;-3.52;57.02;100386.83;217948;1276;26005;-69
2022/03/11 07:21:01;;;;;;;17.90;8.00;;;;;;;-3.27;56.11;100391.32;217846;1276;24220;-68
2022/03/11 07:26:07;;;;;;;16.70;7.70;;;;;;;-3.11;55.67;100395.45;217505;1276;505751;-68
2022/03/11 07:31:12;;;;;;;16.90;7.90;;;;;;;-2.98;54.59;100396.20;217792;1276;27824;-67
2022/03/11 07:36:17;;;;;;;17.20;8.10;;;;;;;-2.84;54.19;100392.77;218027;1276;25547;-68
2022/03/11 07:41:20;;;;;;;16.90;8.00;;;;;;;-2.69;53.91;100398.59;217980;1276;24382;-68
2022/03/11 07:46:23;;;;;;;12.40;7.20;;;;;;;-2.51;54.10;100402.48;218130;1276;25437;-67
2022/03/11 07:51:25;;;;;;;17.40;8.40;;;;;;;-2.26;53.72;100407.71;217677;1276;22610;-68
2022/03/11 07:56:27;;;;;;;15.50;8.30;;;;;;;-1.99;53.66;100404.65;217619;1276;22990;-66
2022/03/11 08:01:38;;;;;;;12.10;6.90;;;;;;;-1.72;52.38;100407.88;217882;1276;22584;-67
2022/03/11 08:06:44;;;;;;;11.70;5.80;;;;;;;-1.60;51.78;100409.92;217928;1276;22570;-67
2022/03/11 08:11:46;;;;;;;14.40;6.10;;;;;;;-1.45;51.15;100411.20;219173;1276;22570;-68
2022/03/11 08:16:48;;;;;;;10.10;5.90;;;;;;;-1.27;50.31;100408.50;217993;1276;22563;-68
2022/03/11 08:21:54;;;;;;;15.40;6.60;;;;;;;-1.19;49.51;100402.46;217793;1276;22945;-68
2022/03/11 08:27:11;;;;;;;12.70;5.80;;;;;;;-1.12;49.14;100402.66;218093;1276;24189;-68
2022/03/11 08:32:13;;;;;;;10.90;5.20;;;;;;;-0.99;49.15;100405.75;217815;1276;22819;-69
2022/03/11 08:37:16;;;;;;;9.60;4.10;;;;;;;-0.85;48.45;100406.46;218346;1276;22581;-68
2022/03/11 08:42:18;;;;;;;11.90;5.10;;;;;;;-0.66;47.62;100405.83;217934;1276;22632;-67
2022/03/11 08:47:23;;;;;;;8.60;4.40;;;;;;;-0.58;47.46;100401.00;217637;1276;22731;-68
2022/03/11 08:52:30;;;;;;;9.20;4.90;;;;;;;-0.46;46.67;100398.95;218239;1276;23835;-68
2022/03/11 08:57:32;;;;;;;8.60;4.80;;;;;;;-0.43;46.21;100397.21;218232;1276;22589;-67
2022/03/11 09:02:38;;;;;;;8.50;5.10;;;;;;;-0.30;46.28;100399.94;218318;1276;25640;-68
2022/03/11 09:07:40;;;;;;;11.60;5.40;;;;;;;-0.13;46.30;100397.63;218165;1276;22775;-67
2022/03/11 09:12:43;;;;;;;10.90;5.80;;;;;;;0.08;46.66;100392.21;217644;1275;22632;-66
2022/03/11 09:17:45;;;;;;;10.90;6.00;;;;;;;0.29;46.23;100390.52;217979;1276;23856;-68
2022/03/11 09:22:50;;;;;;;8.80;5.50;;;;;;;0.37;45.48;100390.59;218129;1276;22710;-68
2022/03/11 09:27:55;;;;;;;9.90;5.80;;;;;;;0.53;45.58;100381.11;217821;1276;23847;-68
2022/03/11 09:33:16;;;;;;;8.60;5.30;;;;;;;0.63;44.92;100373.05;217464;1276;22708;-68
2022/03/11 09:38:48;;;;;;;9.90;5.60;;;;;;;0.78;44.10;100374.97;218074;1276;22527;-68
2022/03/11 09:43:54;;;;;;;10.00;5.00;;;;;;;0.95;44.33;100380.20;217871;1276;22705;-68
2022/03/11 09:49:01;;;;;;;8.60;4.30;;;;;;;1.12;43.40;100378.13;221204;1276;22592;-68
2022/03/11 09:54:09;;;;;;;10.90;4.60;;;;;;;1.23;43.28;100378.43;217951;1276;23219;-67
2022/03/11 09:59:15;;;;;;;9.70;5.30;;;;;;;1.34;42.92;100381.80;218084;1276;22496;-67
2022/03/11 10:04:21;;;;;;;7.80;4.30;;;;;;;1.46;42.67;100374.52;218029;1276;23203;-68
2022/03/11 10:09:33;;;;;;;9.70;4.40;;;;;;;1.61;42.23;100368.31;217983;1276;24121;-67
2022/03/11 10:14:55;;;;;;;8.00;4.90;;;;;;;1.70;41.34;100363.67;218137;1276;22534;-69
2022/03/11 10:20:27;;;;;;;6.70;3.90;;;;;;;1.73;40.70;100368.37;218090;1276;24378;-68
2022/03/11 10:25:33;;;;;;;8.30;4.40;;;;;;;1.84;40.85;100368.54;217714;1276;22557;-67
2022/03/11 10:30:38;;;;;;;8.80;4.70;;;;;;;1.95;40.56;100366.72;217980;1276;22566;-68
2022/03/11 10:35:47;;;;;;;8.40;4.50;;;;;;;2.08;40.33;100359.44;218475;1276;22719;-67
2022/03/11 10:40:58;;;;;;;6.50;4.20;;;;;;;2.22;40.23;100353.79;218690;1275;22710;-67
2022/03/11 10:46:06;;;;;;;6.70;3.70;;;;;;;2.44;39.72;100354.48;217984;1276;23101;-69
2022/03/11 10:51:32;;;;;;;10.40;4.60;;;;;;;2.62;39.17;100352.08;218009;1276;22547;-69
2022/03/11 10:56:41;;;;;;;6.20;4.20;;;;;;;2.74;38.93;100347.82;218377;1276;26595;-68
2022/03/11 11:02:18;;;;;;;9.70;4.80;;;;;;;2.76;38.60;100345.02;218189;1276;24346;-68
2022/03/11 11:08:09;;;;;;;9.00;4.30;;;;;;;2.85;38.24;100339.30;218268;1276;23299;-67
2022/03/11 11:14:07;;;;;;;7.90;4.10;;;;;;;2.88;38.07;100336.25;218954;1274;25403;-69
2022/03/11 11:19:43;;;;;;;6.40;4.00;;;;;;;3.08;38.23;100332.48;218029;1276;22632;-67
2022/03/11 11:24:59;;;;;;;8.50;4.30;;;;;;;3.15;37.58;100334.40;218007;1274;22815;-68
2022/03/11 11:30:18;;;;;;;8.20;4.70;;;;;;;3.14;37.10;100329.52;218603;1275;22583;-68
2022/03/11 11:35:32;;;;;;;5.30;2.80;;;;;;;3.23;36.23;100317.46;217972;1276;25379;-69
2022/03/11 11:40:44;;;;;;;5.70;3.40;;;;;;;3.35;36.25;100316.79;218210;1274;25211;-69
2022/03/11 11:45:59;;;;;;;6.60;3.60;;;;;;;3.46;35.96;100315.09;218272;1274;23837;-68
2022/03/11 11:51:06;;;;;;;6.20;3.30;;;;;;;3.46;35.46;100307.34;218016;1276;22593;-69
2022/03/11 11:56:30;;;;;;;5.70;3.50;;;;;;;3.46;35.36;100307.02;218410;1275;22780;-68
2022/03/11 12:01:44;;;;;;;5.70;2.50;;;;;;;3.57;34.73;100306.08;218148;1274;22593;-68
2022/03/11 12:07:16;;;;;;;6.00;3.10;;;;;;;3.56;34.47;100302.54;218238;1275;22557;-69
2022/03/11 12:12:18;;;;;;;4.80;2.60;;;;;;;3.57;34.47;100298.09;218817;1276;22583;-68
2022/03/11 12:17:43;;;;;;;3.40;2.00;;;;;;;3.57;33.86;100291.03;218295;1274;22719;-68
2022/03/11 12:23:02;;;;;;;6.00;3.10;;;;;;;3.59;33.50;100289.81;218337;1276;24242;-68
2022/03/11 12:28:27;;;;;;;4.60;2.40;;;;;;;3.60;33.53;100285.57;219195;1277;25358;-68
2022/03/11 12:33:42;;;;;;;6.20;2.30;;;;;;;3.68;33.46;100281.98;217979;1276;23095;-70
2022/03/11 12:38:50;;;;;;;3.10;2.30;;;;;;;3.73;32.49;100281.55;218245;1276;22544;-69
2022/03/11 12:43:52;;;;;;;4.20;2.50;;;;;;;3.75;32.81;100268.55;218182;1276;22597;-69
2022/03/11 12:48:55;;;;;;;4.20;2.40;;;;;;;3.80;33.01;100263.43;218365;1277;22597;-67
2022/03/11 12:54:16;;;;;;;4.70;2.70;;;;;;;3.74;32.63;100254.80;218458;1277;22551;-69
2022/03/11 12:59:44;;;;;;;4.60;2.90;;;;;;;3.78;32.02;100257.36;218059;1274;25316;-69
2022/03/11 13:04:51;;;;;;;6.60;2.70;;;;;;;3.80;32.38;100248.92;218054;1274;23020;-68
2022/03/11 13:10:26;;;;;;;4.10;2.60;;;;;;;3.90;32.26;100251.76;218208;1274;25377;-69
2022/03/11 13:15:35;;;;;;;4.30;2.10;;;;;;;3.93;31.75;100251.20;218007;1274;25270;-68
2022/03/11 13:20:40;;;;;;;3.40;2.20;;;;;;;3.91;31.71;100245.88;218123;1277;25464;-68
2022/03/11 13:25:53;;;;;;;5.50;2.50;;;;;;;3.88;31.84;100237.94;218515;1276;25370;-69
2022/03/11 13:31:19;;;;;;;4.30;2.40;;;;;;;3.91;31.60;100237.19;218185;1277;23039;-68
2022/03/11 13:36:26;;;;;;;4.60;2.80;;;;;;;3.83;31.46;100231.54;218366;1277;22553;-68
2022/03/11 13:41:42;;;;;;;4.40;3.00;;;;;;;3.76;31.80;100229.36;218217;1274;22631;-68
2022/03/11 13:46:52;;;;;;;4.60;2.80;;;;;;;3.81;31.68;100221.81;218125;1274;22600;-68
2022/03/11 13:52:04;;;;;;;5.80;2.80;;;;;;;3.83;32.00;100214.82;218196;1274;22603;-68
2022/03/11 13:57:22;;;;;;;8.00;3.30;;;;;;;3.83;31.89;100211.02;219455;1274;27404;-68
2022/03/11 14:02:30;;;;;;;6.90;3.20;;;;;;;3.83;31.66;100216.58;220012;1277;22563;-68
2022/03/11 14:07:33;;;;;;;6.80;3.40;;;;;;;3.80;31.78;100209.56;218414;1274;25249;-68
2022/03/11 14:13:00;;;;;;;6.20;3.00;;;;;;;3.82;31.96;100203.45;217879;1276;23024;-67
2022/03/11 14:18:10;;;;;;;6.80;3.20;;;;;;;3.88;32.06;100201.52;217724;1276;24202;-68
2022/03/11 14:23:33;;;;;;;6.30;2.90;;;;;;;3.87;31.84;100193.40;217725;1276;24471;-68
2022/03/11 14:28:36;;;;;;;4.30;3.10;;;;;;;3.83;31.84;100195.53;219235;1276;24350;-66
2022/03/11 14:33:40;;;;;;;8.60;3.70;;;;;;;3.82;31.54;100194.92;217653;1276;24322;-68
2022/03/11 14:38:47;;;;;;;5.60;3.00;;;;;;;3.74;31.27;100190.91;217991;1276;25635;-66
2022/03/11 14:43:54;;;;;;;5.60;3.40;;;;;;;3.70;32.04;100185.73;218427;1276;24248;-68
2022/03/11 14:48:56;;;;;;;5.80;3.40;;;;;;;3.69;32.39;100177.59;218188;1276;24552;-67
2022/03/11 14:53:59;;;;;;;6.10;3.30;;;;;;;3.67;32.24;100173.69;218433;1276;22537;-68
2022/03/11 14:59:02;;;;;;;5.90;3.50;;;;;;;3.60;31.73;100176.52;218252;1277;24134;-68
2022/03/11 15:04:08;;;;;;;5.70;3.50;;;;;;;3.52;32.13;100177.59;218222;1276;25401;-69
2022/03/11 15:09:40;;;;;;;6.50;4.20;;;;;;;3.42;31.88;100173.05;218445;1276;22613;-68
2022/03/11 15:15:14;;;;;;;5.80;2.80;;;;;;;3.32;32.05;100177.48;218369;1276;22544;-69
2022/03/11 15:20:16;;;;;;;7.20;3.30;;;;;;;3.20;32.18;100172.99;218627;1276;22683;-68
2022/03/11 15:25:21;;;;;;;4.40;2.80;;;;;;;3.11;31.94;100165.30;218758;1276;22559;-68
2022/03/11 15:30:27;;;;;;;7.00;2.90;;;;;;;2.99;32.26;100158.49;218569;1276;22555;-68
2022/03/11 15:35:32;;;;;;;4.60;2.70;;;;;;;2.80;32.38;100155.90;218616;1276;25321;-68
2022/03/11 15:40:36;;;;;;;6.80;2.70;;;;;;;2.54;32.68;100151.73;219039;1276;22660;-68
2022/03/11 15:45:41;;;;;;;5.50;3.00;;;;;;;2.42;33.19;100151.13;218847;1276;22555;-69
2022/03/11 15:50:45;;;;;;;5.20;2.80;;;;;;;2.33;33.21;100143.02;218482;1276;24434;-69
2022/03/11 15:55:48;;;;;;;7.80;3.50;;;;;;;2.25;33.21;100138.56;218730;1276;22692;-68
2022/03/11 16:00:58;;;;;;;6.60;3.50;;;;;;;2.15;33.30;100141.14;218693;1276;22569;-69
2022/03/11 16:06:02;;;;;;;4.40;2.50;;;;;;;2.04;32.87;100141.88;219012;1276;22783;-68
2022/03/11 16:11:20;;;;;;;5.90;3.40;;;;;;;1.90;33.40;100142.89;218756;1276;22556;-67
2022/03/11 16:16:25;;;;;;;7.80;3.70;;;;;;;1.74;34.06;100143.55;218613;1276;22538;-68
2022/03/11 16:21:30;;;;;;;9.80;4.90;;;;;;;1.59;34.07;100140.31;218900;1276;22588;-67
2022/03/11 16:26:36;;;;;;;8.70;4.40;;;;;;;1.42;34.32;100138.59;218781;1277;22768;-68
2022/03/11 16:31:39;;;;;;;10.90;4.50;;;;;;;1.21;34.77;100136.44;219026;1277;22627;-68
2022/03/11 16:36:58;;;;;;;9.80;4.80;;;;;;;1.10;35.09;100142.82;218851;1276;22585;-68
2022/03/11 16:42:01;;;;;;;11.20;6.00;;;;;;;0.92;35.27;100143.98;218720;1276;24688;-70
2022/03/11 16:47:08;;;;;;;8.10;4.20;;;;;;;0.78;35.74;100150.30;218660;1277;24373;-68
2022/03/11 16:52:12;;;;;;;7.00;3.80;;;;;;;0.62;36.13;100146.02;218756;1277;22604;-68
2022/03/11 16:57:15;;;;;;;8.90;4.30;;;;;;;0.46;36.38;100149.19;218849;1276;22777;-67
2022/03/11 17:02:21;;;;;;;7.80;3.70;;;;;;;0.30;37.07;100149.84;218566;1277;22578;-68
2022/03/11 17:07:24;;;;;;;9.20;4.10;;;;;;;0.01;37.44;100151.11;218941;1277;24820;-66
2022/03/11 17:12:28;;;;;;;8.70;4.80;;;;;;;-0.17;37.63;100154.31;218504;1277;25345;-67
2022/03/11 17:17:48;;;;;;;;;;;;;;;-0.37;37.98;100161.49;218590;1277;22538;-69
2022/03/11 17:22:50;;;;;;;12.20;6.00;;;;;;;-0.63;38.90;100162.20;218561;1276;22621;-67
2022/03/11 17:27:54;;;;;;;14.30;6.50;;;;;;;-0.79;39.10;100168.13;218905;1277;24248;-68
2022/03/11 17:32:57;;;;;;;14.30;6.10;;;;;;;-0.95;39.05;100165.77;218834;1277;24827;-68
2022/03/11 17:38:13;;;;;;;13.60;5.90;;;;;;;-1.07;39.19;100169.79;218512;1276;22719;-68
2022/03/11 17:43:19;;;;;;;14.40;6.30;;;;;;;-1.06;39.12;100162.84;218875;1277;24266;-69
2022/03/11 17:48:21;;;;;;;13.70;6.00;;;;;;;-0.96;38.95;100170.94;218711;1277;22722;-68
2022/03/11 17:53:30;;;;;;;13.00;6.30;;;;;;;-0.99;39.05;100167.81;218412;1276;22556;-69
2022/03/11 17:58:33;;;;;;;16.60;6.70;;;;;;;-1.04;39.10;100168.17;218519;1277;24389;-68
2022/03/11 18:03:38;;;;;;;10.40;5.60;;;;;;;-1.10;39.33;100169.95;219241;1275;22722;-69
2022/03/11 18:08:41;;;;;;;14.20;6.80;;;;;;;-1.15;39.22;100163.32;218619;1277;23791;-68
2022/03/11 18:14:11;;;;;;;18.90;8.50;;;;;;;-1.26;39.39;100167.55;218827;1276;22634;-68
2022/03/11 18:19:16;;;;;;;22.10;9.50;;;;;;;-1.42;39.76;100166.80;218633;1277;22578;-68
2022/03/11 18:24:22;;;;;;;24.70;11.70;;;;;;;-1.55;39.96;100168.29;218645;1276;22870;-68
2022/03/11 18:29:24;;;;;;;26.50;11.20;;;;;;;-1.65;40.18;100172.75;218581;1276;24709;-68
2022/03/11 18:34:27;;;;;;;25.70;11.50;;;;;;;-1.65;40.74;100172.33;218625;1277;24244;-68
2022/03/11 18:39:30;;;;;;;27.30;10.80;;;;;;;-1.60;40.58;100171.77;218582;1277;24794;-68
2022/03/11 18:44:34;;;;;;;22.60;9.50;;;;;;;-1.62;40.69;100175.61;218675;1277;24342;-68
2022/03/11 18:49:43;;;;;;;20.10;8.60;;;;;;;-1.69;40.63;100174.20;218607;1276;24171;-68
2022/03/11 18:54:49;;;;;;;20.60;8.70;;;;;;;-1.80;40.81;100170.17;218801;1276;23052;-68
2022/03/11 18:59:58;;;;;;;22.10;9.80;;;;;;;-1.87;41.02;100171.50;218738;1276;25268;-69
2022/03/11 19:05:04;;;;;;;19.90;8.80;;;;;;;-1.91;41.18;100174.83;218775;1277;24259;-69
2022/03/11 19:10:08;;;;;;;17.90;8.30;;;;;;;-2.00;41.12;100176.11;218653;1277;22870;-68
2022/03/11 19:15:14;;;;;;;21.40;7.60;;;;;;;-2.12;41.38;100174.92;218819;1277;24304;-69
2022/03/11 19:20:21;;;;;;;15.40;7.50;;;;;;;-2.18;41.57;100178.95;218824;1276;24331;-69
2022/03/11 19:25:24;;;;;;;19.20;8.10;;;;;;;-2.23;41.77;100178.98;218280;1274;731477;-68
2022/03/11 19:30:30;;;;;;;17.20;7.80;;;;;;;-2.29;41.71;100177.69;218700;1277;22733;-68
2022/03/11 19:35:35;;;;;;;18.40;7.60;;;;;;;-2.29;41.83;100169.88;219028;1277;24255;-68
2022/03/11 19:40:38;;;;;;;18.80;8.10;;;;;;;-2.36;42.28;100168.19;218650;1277;24113;-68
2022/03/11 19:45:44;;;;;;;19.20;8.70;;;;;;;-2.41;42.42;100168.84;218657;1277;25560;-67
2022/03/11 19:50:54;;;;;;;19.80;8.50;;;;;;;-2.46;42.52;100168.52;218729;1276;24249;-69
2022/03/11 19:55:59;;;;;;;20.40;8.60;;;;;;;-2.50;42.67;100173.44;218611;1277;22663;-68
2022/03/11 20:01:03;;;;;;;19.30;8.20;;;;;;;-2.51;43.06;100174.35;218578;1277;22726;-68
2022/03/11 20:06:13;;;;;;;18.80;8.30;;;;;;;-2.47;43.47;100177.45;218952;1276;22539;-68
2022/03/11 20:11:22;;;;;;;21.30;8.20;;;;;;;-2.51;43.61;100177.83;218662;1276;22751;-68
2022/03/11 20:16:33;;;;;;;16.60;7.40;;;;;;;-2.52;43.67;100178.67;218665;1277;24291;-69
2022/03/11 20:21:38;;;;;;;17.60;7.70;;;;;;;-2.56;43.86;100177.70;219352;1277;23660;-68
2022/03/11 20:26:43;;;;;;;13.80;7.50;;;;;;;-2.59;43.89;100174.14;218776;1277;24585;-67
2022/03/11 20:31:59;;;;;;;17.50;7.90;;;;;;;-2.56;44.03;100172.65;218708;1277;22639;-67
2022/03/11 20:37:02;;;;;;;15.50;7.90;;;;;;;-2.52;43.98;100172.15;218712;1277;22594;-68
2022/03/11 20:42:07;;;;;;;19.70;9.20;;;;;;;-2.55;43.76;100171.63;218821;1277;24419;-67
2022/03/11 20:47:09;;;;;;;20.80;8.10;;;;;;;-2.62;43.70;100171.33;218823;1277;22770;-69
2022/03/11 20:52:12;;;;;;;20.70;9.40;;;;;;;-2.60;43.97;100167.09;219121;1277;22734;-69
2022/03/11 20:57:14;;;;;;;22.60;8.90;;;;;;;-2.54;44.05;100166.60;218481;1277;22790;-68
2022/03/11 21:02:17;;;;;;;17.90;9.30;;;;;;;-2.54;43.84;100161.89;218642;1277;22651;-68
2022/03/11 21:07:22;;;;;;;21.60;9.90;;;;;;;-2.56;43.89;100163.89;218894;1277;22765;-67
2022/03/11 21:12:26;;;;;;;23.10;10.40;;;;;;;-2.63;43.88;100166.20;218693;1277;22697;-68
2022/03/11 21:17:29;;;;;;;23.70;10.80;;;;;;;-2.63;43.97;100163.45;219231;1277;22548;-68
2022/03/11 21:22:32;;;;;;;23.70;10.90;;;;;;;-2.64;43.73;100162.92;218467;1277;22685;-68
2022/03/11 21:27:38;;;;;;;23.40;9.70;;;;;;;-2.69;44.01;100162.00;218593;1276;22633;-67
2022/03/11 21:32:44;;;;;;;28.10;11.60;;;;;;;-2.77;43.95;100160.53;218846;1276;24851;-68
2022/03/11 21:37:53;;;;;;;23.00;10.30;;;;;;;-2.84;44.05;100156.11;218397;1278;25392;-68
2022/03/11 21:42:56;;;;;;;22.30;10.20;;;;;;;-2.89;44.45;100154.52;218993;1277;22743;-69
2022/03/11 21:47:58;;;;;;;21.00;9.80;;;;;;;-2.95;44.80;100143.23;218564;1277;22587;-69
2022/03/11 21:53:01;;;;;;;35.00;16.20;;;;;;;-3.00;45.19;100139.55;218562;1277;22628;-68
2022/03/11 21:58:06;;;;;;;23.70;10.20;;;;;;;-3.03;45.56;100138.39;219047;1276;25636;-68
2022/03/11 22:03:12;;;;;;;17.20;8.60;;;;;;;-3.11;45.51;100132.69;218563;1277;25560;-69
2022/03/11 22:08:15;;;;;;;20.90;10.50;;;;;;;-3.11;45.78;100132.71;218551;1278;24132;-68
2022/03/11 22:13:20;;;;;;;23.20;9.60;;;;;;;-3.15;45.80;100134.59;219079;1277;25378;-68
2022/03/11 22:18:23;;;;;;;20.60;9.40;;;;;;;-3.20;46.13;100134.97;218735;1277;22776;-68
2022/03/11 22:23:25;;;;;;;19.30;9.30;;;;;;;-3.22;45.95;100137.61;218821;1277;25510;-69
2022/03/11 22:28:28;;;;;;;29.10;12.80;;;;;;;-3.33;45.88;100142.56;218506;1277;25464;-69
2022/03/11 22:33:31;;;;;;;32.10;12.60;;;;;;;-3.42;46.13;100138.63;218641;1277;26985;-68
2022/03/11 22:38:34;;;;;;;31.60;12.50;;;;;;;-3.44;46.29;100141.96;218581;1277;24204;-66
2022/03/11 22:43:37;;;;;;;25.40;11.20;;;;;;;-3.40;46.65;100142.70;218465;1278;24970;-67
2022/03/11 22:48:40;;;;;;;20.90;9.60;;;;;;;-3.39;46.67;100137.16;218529;1275;25538;-69
2022/03/11 22:53:43;;;;;;;24.10;9.90;;;;;;;-3.49;46.37;100136.36;218781;1277;26635;-69
2022/03/11 22:58:48;;;;;;;23.40;9.80;;;;;;;-3.48;46.34;100132.80;218738;1277;22769;-68
2022/03/11 23:03:50;;;;;;;24.00;10.90;;;;;;;-3.44;45.78;100137.52;218641;1277;23469;-68
2022/03/11 23:14:19;;;;;;;25.60;10.40;;;;;;;-3.44;45.75;100139.25;218965;1275;23764;-68
2022/03/11 23:19:24;;;;;;;28.30;12.60;;;;;;;-3.40;45.80;100139.48;218430;1277;23153;-68
2022/03/11 23:24:37;;;;;;;23.30;9.80;;;;;;;-3.45;45.75;100137.55;218572;1277;22757;-68
2022/03/11 23:30:00;;;;;;;22.30;10.40;;;;;;;-3.56;46.02;100128.44;218704;1277;24019;-68
2022/03/11 23:35:20;;;;;;;17.30;9.00;;;;;;;-3.70;46.09;100121.16;218831;1277;24076;-68